sensor_id;sensor_type;location;lat;lon;timestamp;P1;durP1;ratioP1;P2;durP2;ratioP2
15114;SDS011;7658;51.456;7.622;2023-05-13T00:00:11;11.05;;;8.60;;
15114;SDS011;7658;51.456;7.622;2023-05-13T00:02:38;11.63;;;8.40;;
15114;SDS011;7658;51.456;7.622;2023-05-13T00:05:03;10.07;;;8.70;;
15114;SDS011;7658;51.456;7.622;2023-05-13T00:07:29;12.45;;;8.82;;
15114;SDS011;7658;51.456;7.622;2023-05-13T00:09:55;10.00;;;8.23;;
15114;SDS011;7658;51.456;7.622;2023-05-13T00:12:21;10.02;;;8.55;;
15114;SDS011;7658;51.456;7.622;2023-05-13T00:14:47;9.98;;;8.05;;
15114;SDS011;7658;51.456;7.622;2023-05-13T00:17:12;11.80;;;9.32;;
15114;SDS011;7658;51.456;7.622;2023-05-13T00:19:38;10.90;;;9.20;;
15114;SDS011;7658;51.456;7.622;2023-05-13T00:22:04;13.63;;;9.95;;
15114;SDS011;7658;51.456;7.622;2023-05-13T00:24:30;12.27;;;9.55;;
15114;SDS011;7658;51.456;7.622;2023-05-13T00:26:56;14.07;;;10.50;;
15114;SDS011;7658;51.456;7.622;2023-05-13T00:29:22;11.88;;;9.90;;
15114;SDS011;7658;51.456;7.622;2023-05-13T00:31:48;11.75;;;10.55;;
15114;SDS011;7658;51.456;7.622;2023-05-13T00:34:14;14.52;;;11.18;;
15114;SDS011;7658;51.456;7.622;2023-05-13T00:36:40;14.50;;;11.15;;
15114;SDS011;7658;51.456;7.622;2023-05-13T00:39:06;12.80;;;10.43;;
15114;SDS011;7658;51.456;7.622;2023-05-13T00:41:32;12.90;;;10.68;;
15114;SDS011;7658;51.456;7.622;2023-05-13T00:43:58;12.50;;;9.27;;
15114;SDS011;7658;51.456;7.622;2023-05-13T00:46:23;12.50;;;8.98;;
15114;SDS011;7658;51.456;7.622;2023-05-13T00:48:50;11.15;;;9.02;;
15114;SDS011;7658;51.456;7.622;2023-05-13T00:51:16;10.57;;;8.75;;
15114;SDS011;7658;51.456;7.622;2023-05-13T00:53:42;10.00;;;8.93;;
15114;SDS011;7658;51.456;7.622;2023-05-13T00:56:08;10.20;;;9.00;;
15114;SDS011;7658;51.456;7.622;2023-05-13T00:58:34;10.75;;;9.60;;
15114;SDS011;7658;51.456;7.622;2023-05-13T01:01:13;16.67;;;10.02;;
15114;SDS011;7658;51.456;7.622;2023-05-13T01:06:35;15.52;;;10.68;;
15114;SDS011;7658;51.456;7.622;2023-05-13T01:09:20;11.35;;;10.00;;
15114;SDS011;7658;51.456;7.622;2023-05-13T01:11:57;16.92;;;11.48;;
15114;SDS011;7658;51.456;7.622;2023-05-13T01:14:34;21.33;;;11.50;;
15114;SDS011;7658;51.456;7.622;2023-05-13T01:19:51;15.23;;;11.45;;
15114;SDS011;7658;51.456;7.622;2023-05-13T01:22:18;21.05;;;11.80;;
15114;SDS011;7658;51.456;7.622;2023-05-13T01:24:44;23.80;;;12.68;;
15114;SDS011;7658;51.456;7.622;2023-05-13T01:27:10;16.20;;;11.65;;
15114;SDS011;7658;51.456;7.622;2023-05-13T01:29:36;17.85;;;10.68;;
15114;SDS011;7658;51.456;7.622;2023-05-13T01:32:02;15.75;;;11.02;;
15114;SDS011;7658;51.456;7.622;2023-05-13T01:34:29;16.23;;;10.60;;
15114;SDS011;7658;51.456;7.622;2023-05-13T01:36:56;15.75;;;10.45;;
15114;SDS011;7658;51.456;7.622;2023-05-13T01:39:23;14.88;;;10.30;;
15114;SDS011;7658;51.456;7.622;2023-05-13T01:41:50;15.48;;;11.70;;
15114;SDS011;7658;51.456;7.622;2023-05-13T01:44:15;20.50;;;11.65;;
15114;SDS011;7658;51.456;7.622;2023-05-13T01:46:42;14.43;;;10.85;;
15114;SDS011;7658;51.456;7.622;2023-05-13T01:49:08;15.30;;;11.13;;
15114;SDS011;7658;51.456;7.622;2023-05-13T01:51:34;17.83;;;11.13;;
15114;SDS011;7658;51.456;7.622;2023-05-13T01:54:04;15.57;;;11.25;;
15114;SDS011;7658;51.456;7.622;2023-05-13T01:56:30;20.13;;;11.95;;
15114;SDS011;7658;51.456;7.622;2023-05-13T01:58:55;14.70;;;10.65;;
15114;SDS011;7658;51.456;7.622;2023-05-13T02:01:21;13.80;;;11.25;;
15114;SDS011;7658;51.456;7.622;2023-05-13T02:03:47;15.45;;;12.00;;
15114;SDS011;7658;51.456;7.622;2023-05-13T02:06:13;14.63;;;11.25;;
15114;SDS011;7658;51.456;7.622;2023-05-13T02:08:39;12.20;;;10.88;;
15114;SDS011;7658;51.456;7.622;2023-05-13T02:11:04;14.85;;;10.90;;
15114;SDS011;7658;51.456;7.622;2023-05-13T02:13:30;12.93;;;10.55;;
15114;SDS011;7658;51.456;7.622;2023-05-13T02:15:56;26.10;;;12.35;;
15114;SDS011;7658;51.456;7.622;2023-05-13T02:18:22;15.23;;;11.65;;
15114;SDS011;7658;51.456;7.622;2023-05-13T02:20:48;17.48;;;12.38;;
15114;SDS011;7658;51.456;7.622;2023-05-13T02:23:13;15.60;;;11.73;;
15114;SDS011;7658;51.456;7.622;2023-05-13T02:25:40;22.40;;;13.02;;
15114;SDS011;7658;51.456;7.622;2023-05-13T02:28:06;18.02;;;13.05;;
15114;SDS011;7658;51.456;7.622;2023-05-13T02:30:32;18.40;;;12.52;;
15114;SDS011;7658;51.456;7.622;2023-05-13T02:32:58;20.95;;;13.85;;
15114;SDS011;7658;51.456;7.622;2023-05-13T02:35:24;27.27;;;13.40;;
15114;SDS011;7658;51.456;7.622;2023-05-13T02:37:53;22.05;;;13.38;;
15114;SDS011;7658;51.456;7.622;2023-05-13T02:40:20;25.02;;;13.52;;
15114;SDS011;7658;51.456;7.622;2023-05-13T02:42:46;32.53;;;12.75;;
15114;SDS011;7658;51.456;7.622;2023-05-13T02:45:11;41.15;;;14.20;;
15114;SDS011;7658;51.456;7.622;2023-05-13T02:47:37;34.42;;;12.95;;
15114;SDS011;7658;51.456;7.622;2023-05-13T02:50:04;24.92;;;12.70;;
15114;SDS011;7658;51.456;7.622;2023-05-13T02:52:32;34.13;;;14.30;;
15114;SDS011;7658;51.456;7.622;2023-05-13T02:55:01;35.55;;;13.82;;
15114;SDS011;7658;51.456;7.622;2023-05-13T02:57:27;25.17;;;12.20;;
15114;SDS011;7658;51.456;7.622;2023-05-13T02:59:53;39.75;;;12.75;;
15114;SDS011;7658;51.456;7.622;2023-05-13T03:02:18;17.40;;;11.57;;
15114;SDS011;7658;51.456;7.622;2023-05-13T03:04:44;15.65;;;12.38;;
15114;SDS011;7658;51.456;7.622;2023-05-13T03:07:11;19.80;;;12.50;;
15114;SDS011;7658;51.456;7.622;2023-05-13T03:09:37;20.50;;;13.10;;
15114;SDS011;7658;51.456;7.622;2023-05-13T03:12:06;13.30;;;11.85;;
15114;SDS011;7658;51.456;7.622;2023-05-13T03:14:33;17.27;;;11.57;;
15114;SDS011;7658;51.456;7.622;2023-05-13T03:17:00;17.17;;;12.07;;
15114;SDS011;7658;51.456;7.622;2023-05-13T03:19:29;15.63;;;12.48;;
15114;SDS011;7658;51.456;7.622;2023-05-13T03:21:55;19.58;;;12.05;;
15114;SDS011;7658;51.456;7.622;2023-05-13T03:24:21;15.63;;;11.80;;
15114;SDS011;7658;51.456;7.622;2023-05-13T03:26:47;18.83;;;12.02;;
15114;SDS011;7658;51.456;7.622;2023-05-13T03:29:13;20.63;;;12.65;;
15114;SDS011;7658;51.456;7.622;2023-05-13T03:31:38;39.83;;;12.63;;
15114;SDS011;7658;51.456;7.622;2023-05-13T03:34:05;19.02;;;11.45;;
15114;SDS011;7658;51.456;7.622;2023-05-13T03:36:31;32.08;;;13.10;;
15114;SDS011;7658;51.456;7.622;2023-05-13T03:38:56;24.65;;;12.88;;
15114;SDS011;7658;51.456;7.622;2023-05-13T03:41:22;18.67;;;12.18;;
15114;SDS011;7658;51.456;7.622;2023-05-13T03:43:48;29.48;;;13.75;;
15114;SDS011;7658;51.456;7.622;2023-05-13T03:46:14;34.72;;;13.27;;
15114;SDS011;7658;51.456;7.622;2023-05-13T03:48:40;15.95;;;12.40;;
15114;SDS011;7658;51.456;7.622;2023-05-13T03:51:06;14.85;;;12.50;;
15114;SDS011;7658;51.456;7.622;2023-05-13T03:53:31;15.43;;;13.27;;
15114;SDS011;7658;51.456;7.622;2023-05-13T03:55:57;19.65;;;12.50;;
15114;SDS011;7658;51.456;7.622;2023-05-13T03:58:23;20.48;;;12.98;;
15114;SDS011;7658;51.456;7.622;2023-05-13T04:00:48;16.10;;;11.95;;
15114;SDS011;7658;51.456;7.622;2023-05-13T04:03:14;19.90;;;12.45;;
15114;SDS011;7658;51.456;7.622;2023-05-13T04:05:41;16.48;;;12.85;;
15114;SDS011;7658;51.456;7.622;2023-05-13T04:08:07;16.35;;;12.50;;
15114;SDS011;7658;51.456;7.622;2023-05-13T04:10:35;14.57;;;11.43;;
15114;SDS011;7658;51.456;7.622;2023-05-13T04:13:01;24.13;;;13.05;;
15114;SDS011;7658;51.456;7.622;2023-05-13T04:15:26;24.38;;;12.40;;
15114;SDS011;7658;51.456;7.622;2023-05-13T04:17:52;25.33;;;13.45;;
15114;SDS011;7658;51.456;7.622;2023-05-13T04:20:18;24.95;;;13.32;;
15114;SDS011;7658;51.456;7.622;2023-05-13T04:22:44;38.80;;;13.73;;
15114;SDS011;7658;51.456;7.622;2023-05-13T04:25:10;23.30;;;13.20;;
15114;SDS011;7658;51.456;7.622;2023-05-13T04:27:36;15.75;;;12.30;;
15114;SDS011;7658;51.456;7.622;2023-05-13T04:30:01;14.52;;;12.88;;
15114;SDS011;7658;51.456;7.622;2023-05-13T04:32:27;17.30;;;12.00;;
15114;SDS011;7658;51.456;7.622;2023-05-13T04:34:53;21.75;;;13.38;;
15114;SDS011;7658;51.456;7.622;2023-05-13T04:37:19;16.98;;;12.65;;
15114;SDS011;7658;51.456;7.622;2023-05-13T04:39:45;13.13;;;11.73;;
15114;SDS011;7658;51.456;7.622;2023-05-13T04:42:11;23.35;;;12.45;;
15114;SDS011;7658;51.456;7.622;2023-05-13T04:44:37;23.40;;;12.85;;
15114;SDS011;7658;51.456;7.622;2023-05-13T04:47:03;12.43;;;11.13;;
15114;SDS011;7658;51.456;7.622;2023-05-13T04:49:29;24.58;;;12.35;;
15114;SDS011;7658;51.456;7.622;2023-05-13T04:51:55;28.13;;;11.43;;
15114;SDS011;7658;51.456;7.622;2023-05-13T04:54:22;19.52;;;12.32;;
15114;SDS011;7658;51.456;7.622;2023-05-13T04:56:47;24.50;;;12.52;;
15114;SDS011;7658;51.456;7.622;2023-05-13T04:59:13;23.58;;;12.80;;
15114;SDS011;7658;51.456;7.622;2023-05-13T05:01:39;25.23;;;12.35;;
15114;SDS011;7658;51.456;7.622;2023-05-13T05:04:05;21.73;;;13.70;;
15114;SDS011;7658;51.456;7.622;2023-05-13T05:06:31;58.17;;;14.88;;
15114;SDS011;7658;51.456;7.622;2023-05-13T05:08:57;15.98;;;12.32;;
15114;SDS011;7658;51.456;7.622;2023-05-13T05:11:23;19.88;;;13.85;;
15114;SDS011;7658;51.456;7.622;2023-05-13T05:13:49;35.83;;;13.82;;
15114;SDS011;7658;51.456;7.622;2023-05-13T05:16:15;18.10;;;13.20;;
15114;SDS011;7658;51.456;7.622;2023-05-13T05:18:41;62.78;;;15.18;;
15114;SDS011;7658;51.456;7.622;2023-05-13T05:21:10;25.07;;;14.87;;
15114;SDS011;7658;51.456;7.622;2023-05-13T05:23:36;59.47;;;17.93;;
15114;SDS011;7658;51.456;7.622;2023-05-13T05:26:02;22.02;;;14.43;;
15114;SDS011;7658;51.456;7.622;2023-05-13T05:28:28;24.00;;;14.63;;
15114;SDS011;7658;51.456;7.622;2023-05-13T05:30:54;28.70;;;16.03;;
15114;SDS011;7658;51.456;7.622;2023-05-13T05:33:20;32.90;;;16.00;;
15114;SDS011;7658;51.456;7.622;2023-05-13T05:35:46;42.77;;;16.07;;
15114;SDS011;7658;51.456;7.622;2023-05-13T05:38:12;23.53;;;15.77;;
15114;SDS011;7658;51.456;7.622;2023-05-13T05:40:39;29.48;;;14.60;;
15114;SDS011;7658;51.456;7.622;2023-05-13T05:43:07;19.10;;;13.80;;
15114;SDS011;7658;51.456;7.622;2023-05-13T05:45:35;22.90;;;15.03;;
15114;SDS011;7658;51.456;7.622;2023-05-13T05:48:01;18.47;;;15.67;;
15114;SDS011;7658;51.456;7.622;2023-05-13T05:50:27;17.07;;;15.17;;
15114;SDS011;7658;51.456;7.622;2023-05-13T05:52:53;17.33;;;15.53;;
15114;SDS011;7658;51.456;7.622;2023-05-13T05:55:20;19.57;;;16.20;;
15114;SDS011;7658;51.456;7.622;2023-05-13T05:57:45;18.90;;;16.20;;
15114;SDS011;7658;51.456;7.622;2023-05-13T06:00:11;21.27;;;17.23;;
15114;SDS011;7658;51.456;7.622;2023-05-13T06:02:38;21.20;;;17.83;;
15114;SDS011;7658;51.456;7.622;2023-05-13T06:05:04;22.25;;;17.92;;
15114;SDS011;7658;51.456;7.622;2023-05-13T06:07:30;21.75;;;17.00;;
15114;SDS011;7658;51.456;7.622;2023-05-13T06:09:56;20.38;;;16.23;;
15114;SDS011;7658;51.456;7.622;2023-05-13T06:12:21;17.92;;;16.02;;
15114;SDS011;7658;51.456;7.622;2023-05-13T06:14:47;18.90;;;15.48;;
15114;SDS011;7658;51.456;7.622;2023-05-13T06:17:13;16.52;;;14.32;;
15114;SDS011;7658;51.456;7.622;2023-05-13T06:19:40;18.30;;;14.00;;
15114;SDS011;7658;51.456;7.622;2023-05-13T06:22:09;17.30;;;13.10;;
15114;SDS011;7658;51.456;7.622;2023-05-13T06:24:35;17.80;;;13.60;;
15114;SDS011;7658;51.456;7.622;2023-05-13T06:27:02;16.05;;;13.85;;
15114;SDS011;7658;51.456;7.622;2023-05-13T06:29:34;14.60;;;13.10;;
15114;SDS011;7658;51.456;7.622;2023-05-13T06:32:01;18.08;;;13.80;;
15114;SDS011;7658;51.456;7.622;2023-05-13T06:34:27;17.77;;;14.15;;
15114;SDS011;7658;51.456;7.622;2023-05-13T06:36:53;16.08;;;13.10;;
15114;SDS011;7658;51.456;7.622;2023-05-13T06:39:18;19.40;;;13.55;;
15114;SDS011;7658;51.456;7.622;2023-05-13T06:41:44;15.82;;;13.40;;
15114;SDS011;7658;51.456;7.622;2023-05-13T06:44:10;19.63;;;14.48;;
15114;SDS011;7658;51.456;7.622;2023-05-13T06:46:36;16.35;;;13.88;;
15114;SDS011;7658;51.456;7.622;2023-05-13T06:49:02;16.65;;;13.35;;
15114;SDS011;7658;51.456;7.622;2023-05-13T06:51:28;18.33;;;15.05;;
15114;SDS011;7658;51.456;7.622;2023-05-13T06:53:55;15.95;;;14.02;;
15114;SDS011;7658;51.456;7.622;2023-05-13T06:56:21;20.52;;;14.63;;
15114;SDS011;7658;51.456;7.622;2023-05-13T06:58:50;18.25;;;14.43;;
15114;SDS011;7658;51.456;7.622;2023-05-13T07:01:16;17.73;;;14.88;;
15114;SDS011;7658;51.456;7.622;2023-05-13T07:03:42;17.40;;;15.50;;
15114;SDS011;7658;51.456;7.622;2023-05-13T07:06:08;18.15;;;14.20;;
15114;SDS011;7658;51.456;7.622;2023-05-13T07:08:34;16.73;;;14.55;;
15114;SDS011;7658;51.456;7.622;2023-05-13T07:11:00;18.55;;;15.43;;
15114;SDS011;7658;51.456;7.622;2023-05-13T07:13:26;20.85;;;16.08;;
15114;SDS011;7658;51.456;7.622;2023-05-13T07:15:53;19.13;;;15.15;;
15114;SDS011;7658;51.456;7.622;2023-05-13T07:18:19;20.67;;;15.55;;
15114;SDS011;7658;51.456;7.622;2023-05-13T07:20:44;18.63;;;15.85;;
15114;SDS011;7658;51.456;7.622;2023-05-13T07:23:10;17.60;;;14.38;;
15114;SDS011;7658;51.456;7.622;2023-05-13T07:25:36;18.45;;;14.82;;
15114;SDS011;7658;51.456;7.622;2023-05-13T07:28:02;16.20;;;14.43;;
15114;SDS011;7658;51.456;7.622;2023-05-13T07:30:28;18.42;;;15.88;;
15114;SDS011;7658;51.456;7.622;2023-05-13T07:32:54;20.63;;;15.70;;
15114;SDS011;7658;51.456;7.622;2023-05-13T07:35:20;19.08;;;15.25;;
15114;SDS011;7658;51.456;7.622;2023-05-13T07:37:46;20.35;;;15.48;;
15114;SDS011;7658;51.456;7.622;2023-05-13T07:40:12;16.88;;;14.88;;
15114;SDS011;7658;51.456;7.622;2023-05-13T07:42:38;16.77;;;14.02;;
15114;SDS011;7658;51.456;7.622;2023-05-13T07:45:04;17.50;;;14.43;;
15114;SDS011;7658;51.456;7.622;2023-05-13T07:47:31;14.70;;;13.13;;
15114;SDS011;7658;51.456;7.622;2023-05-13T07:49:57;14.93;;;13.32;;
15114;SDS011;7658;51.456;7.622;2023-05-13T07:52:23;15.48;;;12.02;;
15114;SDS011;7658;51.456;7.622;2023-05-13T07:54:50;15.70;;;13.52;;
15114;SDS011;7658;51.456;7.622;2023-05-13T07:57:15;15.82;;;14.20;;
15114;SDS011;7658;51.456;7.622;2023-05-13T07:59:41;19.67;;;14.63;;
15114;SDS011;7658;51.456;7.622;2023-05-13T08:02:07;20.00;;;13.80;;
15114;SDS011;7658;51.456;7.622;2023-05-13T08:04:33;16.25;;;13.85;;
15114;SDS011;7658;51.456;7.622;2023-05-13T08:07:02;18.30;;;14.02;;
15114;SDS011;7658;51.456;7.622;2023-05-13T08:09:28;15.57;;;13.88;;
15114;SDS011;7658;51.456;7.622;2023-05-13T08:11:54;14.90;;;12.93;;
15114;SDS011;7658;51.456;7.622;2023-05-13T08:14:20;17.48;;;13.13;;
15114;SDS011;7658;51.456;7.622;2023-05-13T08:16:46;15.98;;;12.48;;
15114;SDS011;7658;51.456;7.622;2023-05-13T08:19:12;17.55;;;13.40;;
15114;SDS011;7658;51.456;7.622;2023-05-13T08:21:38;14.73;;;11.65;;
15114;SDS011;7658;51.456;7.622;2023-05-13T08:24:04;14.52;;;11.57;;
15114;SDS011;7658;51.456;7.622;2023-05-13T08:26:30;13.23;;;10.75;;
15114;SDS011;7658;51.456;7.622;2023-05-13T08:28:57;12.88;;;9.40;;
15114;SDS011;7658;51.456;7.622;2023-05-13T08:31:22;10.32;;;8.93;;
15114;SDS011;7658;51.456;7.622;2023-05-13T08:33:51;12.45;;;7.90;;
15114;SDS011;7658;51.456;7.622;2023-05-13T08:36:17;9.60;;;7.32;;
15114;SDS011;7658;51.456;7.622;2023-05-13T08:38:44;12.40;;;6.85;;
15114;SDS011;7658;51.456;7.622;2023-05-13T08:41:13;9.43;;;6.75;;
15114;SDS011;7658;51.456;7.622;2023-05-13T08:43:39;10.73;;;6.38;;
15114;SDS011;7658;51.456;7.622;2023-05-13T08:46:10;9.65;;;6.18;;
15114;SDS011;7658;51.456;7.622;2023-05-13T08:48:40;8.70;;;5.97;;
15114;SDS011;7658;51.456;7.622;2023-05-13T08:51:07;10.50;;;5.90;;
15114;SDS011;7658;51.456;7.622;2023-05-13T08:53:33;8.88;;;6.07;;
15114;SDS011;7658;51.456;7.622;2023-05-13T08:56:02;9.45;;;6.45;;
15114;SDS011;7658;51.456;7.622;2023-05-13T08:58:30;8.55;;;6.32;;
15114;SDS011;7658;51.456;7.622;2023-05-13T09:00:56;8.13;;;6.38;;
15114;SDS011;7658;51.456;7.622;2023-05-13T09:03:22;7.20;;;6.10;;
15114;SDS011;7658;51.456;7.622;2023-05-13T09:05:51;8.75;;;5.28;;
15114;SDS011;7658;51.456;7.622;2023-05-13T09:08:17;10.00;;;6.68;;
15114;SDS011;7658;51.456;7.622;2023-05-13T09:10:42;10.48;;;6.65;;
15114;SDS011;7658;51.456;7.622;2023-05-13T09:13:10;11.60;;;6.35;;
15114;SDS011;7658;51.456;7.622;2023-05-13T09:15:37;8.02;;;5.82;;
15114;SDS011;7658;51.456;7.622;2023-05-13T09:18:06;9.35;;;5.85;;
15114;SDS011;7658;51.456;7.622;2023-05-13T09:20:32;11.32;;;5.68;;
15114;SDS011;7658;51.456;7.622;2023-05-13T09:23:00;11.05;;;5.28;;
15114;SDS011;7658;51.456;7.622;2023-05-13T09:25:31;8.95;;;5.70;;
15114;SDS011;7658;51.456;7.622;2023-05-13T09:27:58;8.50;;;6.35;;
15114;SDS011;7658;51.456;7.622;2023-05-13T09:33:05;6.63;;;4.97;;
15114;SDS011;7658;51.456;7.622;2023-05-13T09:35:38;9.38;;;5.72;;
15114;SDS011;7658;51.456;7.622;2023-05-13T09:38:15;7.90;;;5.75;;
15114;SDS011;7658;51.456;7.622;2023-05-13T09:43:21;8.73;;;5.13;;
15114;SDS011;7658;51.456;7.622;2023-05-13T09:45:59;6.80;;;5.50;;
15114;SDS011;7658;51.456;7.622;2023-05-13T09:48:28;7.93;;;5.80;;
15114;SDS011;7658;51.456;7.622;2023-05-13T09:50:55;7.90;;;5.20;;
15114;SDS011;7658;51.456;7.622;2023-05-13T09:53:24;8.50;;;5.53;;
15114;SDS011;7658;51.456;7.622;2023-05-13T09:55:51;9.50;;;5.10;;
15114;SDS011;7658;51.456;7.622;2023-05-13T09:58:18;11.65;;;5.55;;
15114;SDS011;7658;51.456;7.622;2023-05-13T10:00:45;6.50;;;5.10;;
15114;SDS011;7658;51.456;7.622;2023-05-13T10:03:11;8.40;;;5.45;;
15114;SDS011;7658;51.456;7.622;2023-05-13T10:05:38;11.48;;;5.78;;
15114;SDS011;7658;51.456;7.622;2023-05-13T10:08:06;9.40;;;5.40;;
15114;SDS011;7658;51.456;7.622;2023-05-13T10:10:34;6.57;;;5.15;;
15114;SDS011;7658;51.456;7.622;2023-05-13T10:13:04;8.63;;;5.30;;
15114;SDS011;7658;51.456;7.622;2023-05-13T10:15:35;9.27;;;5.05;;
15114;SDS011;7658;51.456;7.622;2023-05-13T10:18:12;10.95;;;5.65;;
15114;SDS011;7658;51.456;7.622;2023-05-13T10:20:39;8.75;;;5.95;;
15114;SDS011;7658;51.456;7.622;2023-05-13T10:23:05;7.57;;;5.55;;
15114;SDS011;7658;51.456;7.622;2023-05-13T10:25:32;8.48;;;5.15;;
15114;SDS011;7658;51.456;7.622;2023-05-13T10:27:57;8.52;;;5.38;;
15114;SDS011;7658;51.456;7.622;2023-05-13T10:30:26;9.75;;;5.85;;
15114;SDS011;7658;51.456;7.622;2023-05-13T10:32:56;7.07;;;5.15;;
15114;SDS011;7658;51.456;7.622;2023-05-13T10:35:23;6.47;;;5.13;;
15114;SDS011;7658;51.456;7.622;2023-05-13T10:40:43;8.35;;;5.10;;
15114;SDS011;7658;51.456;7.622;2023-05-13T10:43:21;11.70;;;6.10;;
15114;SDS011;7658;51.456;7.622;2023-05-13T10:45:48;7.18;;;4.72;;
15114;SDS011;7658;51.456;7.622;2023-05-13T10:48:22;7.47;;;4.65;;
15114;SDS011;7658;51.456;7.622;2023-05-13T10:50:55;12.77;;;5.43;;
15114;SDS011;7658;51.456;7.622;2023-05-13T10:53:26;8.43;;;5.13;;
15114;SDS011;7658;51.456;7.622;2023-05-13T10:55:58;10.50;;;4.95;;
15114;SDS011;7658;51.456;7.622;2023-05-13T10:58:33;6.43;;;4.45;;
15114;SDS011;7658;51.456;7.622;2023-05-13T11:01:24;8.13;;;4.72;;
15114;SDS011;7658;51.456;7.622;2023-05-13T11:04:10;5.85;;;4.32;;
15114;SDS011;7658;51.456;7.622;2023-05-13T11:06:40;7.45;;;4.72;;
15114;SDS011;7658;51.456;7.622;2023-05-13T11:09:11;6.05;;;4.28;;
15114;SDS011;7658;51.456;7.622;2023-05-13T11:11:38;5.80;;;4.60;;
15114;SDS011;7658;51.456;7.622;2023-05-13T11:14:05;8.15;;;4.45;;
15114;SDS011;7658;51.456;7.622;2023-05-13T11:16:44;7.38;;;4.20;;
15114;SDS011;7658;51.456;7.622;2023-05-13T11:19:18;7.20;;;4.28;;
15114;SDS011;7658;51.456;7.622;2023-05-13T11:21:50;7.28;;;4.63;;
15114;SDS011;7658;51.456;7.622;2023-05-13T11:24:19;6.85;;;4.45;;
15114;SDS011;7658;51.456;7.622;2023-05-13T11:26:56;7.82;;;5.32;;
15114;SDS011;7658;51.456;7.622;2023-05-13T11:29:29;6.18;;;4.60;;
15114;SDS011;7658;51.456;7.622;2023-05-13T11:31:57;5.95;;;4.10;;
15114;SDS011;7658;51.456;7.622;2023-05-13T11:34:23;5.88;;;4.30;;
15114;SDS011;7658;51.456;7.622;2023-05-13T11:36:57;8.10;;;4.50;;
15114;SDS011;7658;51.456;7.622;2023-05-13T11:39:32;7.95;;;4.25;;
15114;SDS011;7658;51.456;7.622;2023-05-13T11:41:59;8.25;;;4.40;;
15114;SDS011;7658;51.456;7.622;2023-05-13T11:44:26;7.15;;;4.18;;
15114;SDS011;7658;51.456;7.622;2023-05-13T11:46:56;5.65;;;4.10;;
15114;SDS011;7658;51.456;7.622;2023-05-13T11:49:30;7.00;;;4.47;;
15114;SDS011;7658;51.456;7.622;2023-05-13T11:52:00;6.75;;;4.30;;
15114;SDS011;7658;51.456;7.622;2023-05-13T11:57:17;7.97;;;4.47;;
15114;SDS011;7658;51.456;7.622;2023-05-13T11:59:51;6.72;;;4.25;;
15114;SDS011;7658;51.456;7.622;2023-05-13T12:02:22;5.68;;;4.38;;
15114;SDS011;7658;51.456;7.622;2023-05-13T12:05:04;10.77;;;4.35;;
15114;SDS011;7658;51.456;7.622;2023-05-13T12:07:34;7.60;;;4.15;;
15114;SDS011;7658;51.456;7.622;2023-05-13T12:10:02;12.57;;;4.75;;
15114;SDS011;7658;51.456;7.622;2023-05-13T12:12:30;11.57;;;4.70;;
15114;SDS011;7658;51.456;7.622;2023-05-13T12:14:59;4.47;;;3.85;;
15114;SDS011;7658;51.456;7.622;2023-05-13T12:17:27;8.20;;;4.43;;
15114;SDS011;7658;51.456;7.622;2023-05-13T12:20:07;5.78;;;4.00;;
15114;SDS011;7658;51.456;7.622;2023-05-13T12:30:38;5.05;;;4.00;;
15114;SDS011;7658;51.456;7.622;2023-05-13T12:33:04;9.50;;;4.20;;
15114;SDS011;7658;51.456;7.622;2023-05-13T12:35:36;6.15;;;3.40;;
15114;SDS011;7658;51.456;7.622;2023-05-13T12:38:03;4.50;;;3.58;;
15114;SDS011;7658;51.456;7.622;2023-05-13T12:40:29;4.68;;;3.88;;
15114;SDS011;7658;51.456;7.622;2023-05-13T12:43:00;9.30;;;3.83;;
15114;SDS011;7658;51.456;7.622;2023-05-13T12:45:30;7.47;;;3.95;;
15114;SDS011;7658;51.456;7.622;2023-05-13T12:47:57;4.70;;;3.75;;
15114;SDS011;7658;51.456;7.622;2023-05-13T12:50:24;5.07;;;3.53;;
15114;SDS011;7658;51.456;7.622;2023-05-13T12:52:51;8.70;;;3.58;;
15114;SDS011;7658;51.456;7.622;2023-05-13T12:55:17;8.38;;;3.75;;
15114;SDS011;7658;51.456;7.622;2023-05-13T12:57:43;5.07;;;3.47;;
15114;SDS011;7658;51.456;7.622;2023-05-13T13:00:24;5.75;;;3.75;;
15114;SDS011;7658;51.456;7.622;2023-05-13T13:02:50;4.95;;;3.65;;
15114;SDS011;7658;51.456;7.622;2023-05-13T13:05:18;8.65;;;3.75;;
15114;SDS011;7658;51.456;7.622;2023-05-13T13:07:45;4.25;;;3.60;;
15114;SDS011;7658;51.456;7.622;2023-05-13T13:10:11;6.05;;;4.03;;
15114;SDS011;7658;51.456;7.622;2023-05-13T13:12:37;6.15;;;3.58;;
15114;SDS011;7658;51.456;7.622;2023-05-13T13:15:04;5.53;;;3.30;;
15114;SDS011;7658;51.456;7.622;2023-05-13T13:17:30;4.45;;;3.55;;
15114;SDS011;7658;51.456;7.622;2023-05-13T13:19:56;5.10;;;3.72;;
15114;SDS011;7658;51.456;7.622;2023-05-13T13:22:22;5.00;;;3.45;;
15114;SDS011;7658;51.456;7.622;2023-05-13T13:24:47;5.40;;;3.55;;
15114;SDS011;7658;51.456;7.622;2023-05-13T13:27:13;7.82;;;3.85;;
15114;SDS011;7658;51.456;7.622;2023-05-13T13:29:39;4.88;;;3.47;;
15114;SDS011;7658;51.456;7.622;2023-05-13T13:32:05;5.97;;;3.83;;
15114;SDS011;7658;51.456;7.622;2023-05-13T13:34:31;7.97;;;3.75;;
15114;SDS011;7658;51.456;7.622;2023-05-13T13:36:57;5.75;;;3.90;;
15114;SDS011;7658;51.456;7.622;2023-05-13T13:39:22;6.82;;;4.70;;
15114;SDS011;7658;51.456;7.622;2023-05-13T13:41:48;4.25;;;3.50;;
15114;SDS011;7658;51.456;7.622;2023-05-13T13:44:14;5.10;;;3.05;;
15114;SDS011;7658;51.456;7.622;2023-05-13T13:46:40;8.80;;;4.07;;
15114;SDS011;7658;51.456;7.622;2023-05-13T13:49:05;5.80;;;4.03;;
15114;SDS011;7658;51.456;7.622;2023-05-13T13:51:31;5.47;;;3.90;;
15114;SDS011;7658;51.456;7.622;2023-05-13T13:54:06;5.20;;;4.05;;
15114;SDS011;7658;51.456;7.622;2023-05-13T13:56:32;8.05;;;4.20;;
15114;SDS011;7658;51.456;7.622;2023-05-13T13:59:01;5.82;;;4.18;;
15114;SDS011;7658;51.456;7.622;2023-05-13T14:01:27;7.13;;;4.85;;
15114;SDS011;7658;51.456;7.622;2023-05-13T14:04:01;6.45;;;3.92;;
15114;SDS011;7658;51.456;7.622;2023-05-13T14:06:34;8.85;;;3.95;;
15114;SDS011;7658;51.456;7.622;2023-05-13T14:09:00;7.05;;;3.80;;
15114;SDS011;7658;51.456;7.622;2023-05-13T14:11:26;7.97;;;4.13;;
15114;SDS011;7658;51.456;7.622;2023-05-13T14:13:52;5.30;;;3.80;;
15114;SDS011;7658;51.456;7.622;2023-05-13T14:16:17;6.43;;;3.70;;
15114;SDS011;7658;51.456;7.622;2023-05-13T14:18:43;5.40;;;3.50;;
15114;SDS011;7658;51.456;7.622;2023-05-13T14:21:09;5.38;;;3.50;;
15114;SDS011;7658;51.456;7.622;2023-05-13T14:23:34;5.15;;;3.75;;
15114;SDS011;7658;51.456;7.622;2023-05-13T14:26:01;4.40;;;3.42;;
15114;SDS011;7658;51.456;7.622;2023-05-13T14:28:27;4.75;;;4.22;;
15114;SDS011;7658;51.456;7.622;2023-05-13T14:30:52;5.95;;;3.45;;
15114;SDS011;7658;51.456;7.622;2023-05-13T14:33:18;6.13;;;3.33;;
15114;SDS011;7658;51.456;7.622;2023-05-13T14:35:44;5.80;;;3.47;;
15114;SDS011;7658;51.456;7.622;2023-05-13T14:38:09;4.25;;;3.28;;
15114;SDS011;7658;51.456;7.622;2023-05-13T14:40:35;7.05;;;4.32;;
15114;SDS011;7658;51.456;7.622;2023-05-13T14:43:01;5.00;;;3.67;;
15114;SDS011;7658;51.456;7.622;2023-05-13T14:45:27;4.22;;;3.15;;
15114;SDS011;7658;51.456;7.622;2023-05-13T14:47:53;5.40;;;3.10;;
15114;SDS011;7658;51.456;7.622;2023-05-13T14:50:19;6.47;;;3.40;;
15114;SDS011;7658;51.456;7.622;2023-05-13T14:52:45;5.30;;;3.22;;
15114;SDS011;7658;51.456;7.622;2023-05-13T14:55:11;4.25;;;3.42;;
15114;SDS011;7658;51.456;7.622;2023-05-13T14:57:37;4.20;;;3.20;;
15114;SDS011;7658;51.456;7.622;2023-05-13T15:00:03;5.32;;;3.55;;
15114;SDS011;7658;51.456;7.622;2023-05-13T15:02:29;4.03;;;3.40;;
15114;SDS011;7658;51.456;7.622;2023-05-13T15:04:55;4.85;;;3.42;;
15114;SDS011;7658;51.456;7.622;2023-05-13T15:07:20;4.28;;;3.63;;
15114;SDS011;7658;51.456;7.622;2023-05-13T15:09:46;5.43;;;3.67;;